Capron, Oklahoma
Current Conditions -  °F | °C
As of 2:10 AM on Tuesday 21 Oct 2014 (Local Time) from KAVK Reporting Station
Overcast Overcast  
Wind Chill: 61°   Ceiling: 4700
Heat Index: 61°   Visibility: 9mi
Dew Point: 59°   Wind: 5mph
Humidity: 94%   Direction: 130°SE
Pressure: 30.06"   Gusts: NA
Location:  36.8367°N, 98.8022°W
Report Text: KAVK 210710Z AUTO 13004KT 9SM FEW034 BKN047 OVC055 16/15 A3006 RMK AO2
Loading
Personal Weather Stations






























Interactive Weather Map
Tropical Storm Tracking
New forecast layout! Learn more

10-Day Weather Forecast

Advertisements
Track Severe Weather on mobile